sensor_id;sensor_type;location;lat;lon;timestamp;pressure;altitude;pressure_sealevel;temperature;humidity
29359;BME280;16347;53.232;6.556;2023-03-20T00:02:04;101805.88;;;10.21;68.42
29359;BME280;16347;53.232;6.556;2023-03-20T00:04:32;101811.47;;;10.19;68.22
29359;BME280;16347;53.232;6.556;2023-03-20T00:07:02;101820.63;;;10.18;68.59
29359;BME280;16347;53.232;6.556;2023-03-20T00:09:30;101827.03;;;10.17;68.13
29359;BME280;16347;53.232;6.556;2023-03-20T00:11:58;101838.28;;;10.13;68.98
29359;BME280;16347;53.232;6.556;2023-03-20T00:14:27;101838.66;;;10.19;68.94
29359;BME280;16347;53.232;6.556;2023-03-20T00:16:55;101842.97;;;10.22;68.84
29359;BME280;16347;53.232;6.556;2023-03-20T00:19:25;101836.28;;;10.26;68.44
29359;BME280;16347;53.232;6.556;2023-03-20T00:21:54;101833.72;;;10.13;68.24
29359;BME280;16347;53.232;6.556;2023-03-20T00:24:24;101846.22;;;10.16;68.82
29359;BME280;16347;53.232;6.556;2023-03-20T00:26:52;101842.34;;;10.18;68.36
29359;BME280;16347;53.232;6.556;2023-03-20T00:29:22;101844.81;;;10.21;68.19
29359;BME280;16347;53.232;6.556;2023-03-20T00:31:52;101836.06;;;9.86;68.49
29359;BME280;16347;53.232;6.556;2023-03-20T00:34:22;101837.97;;;9.74;69.08
29359;BME280;16347;53.232;6.556;2023-03-20T00:36:52;101845.84;;;9.77;69.51
29359;BME280;16347;53.232;6.556;2023-03-20T00:39:20;101852.91;;;9.80;69.42
29359;BME280;16347;53.232;6.556;2023-03-20T00:41:52;101858.16;;;9.93;69.45
29359;BME280;16347;53.232;6.556;2023-03-20T00:44:23;101859.91;;;9.83;69.43
29359;BME280;16347;53.232;6.556;2023-03-20T00:46:54;101859.72;;;9.95;69.24
29359;BME280;16347;53.232;6.556;2023-03-20T00:49:25;101861.72;;;9.93;69.40
29359;BME280;16347;53.232;6.556;2023-03-20T00:51:55;101854.81;;;9.89;68.67
29359;BME280;16347;53.232;6.556;2023-03-20T00:54:24;101854.84;;;9.78;69.74
29359;BME280;16347;53.232;6.556;2023-03-20T00:56:56;101860.91;;;9.82;69.36
29359;BME280;16347;53.232;6.556;2023-03-20T00:59:28;101860.44;;;9.97;69.47
29359;BME280;16347;53.232;6.556;2023-03-20T01:01:57;101863.91;;;9.99;69.25
29359;BME280;16347;53.232;6.556;2023-03-20T01:04:32;101865.84;;;10.08;68.95
29359;BME280;16347;53.232;6.556;2023-03-20T01:07:01;101871.72;;;9.93;68.90
29359;BME280;16347;53.232;6.556;2023-03-20T01:09:29;101871.72;;;9.93;69.45
29359;BME280;16347;53.232;6.556;2023-03-20T01:11:59;101871.31;;;9.97;69.11
29359;BME280;16347;53.232;6.556;2023-03-20T01:14:28;101874.19;;;9.96;69.41
29359;BME280;16347;53.232;6.556;2023-03-20T01:16:56;101872.25;;;10.18;68.66
29359;BME280;16347;53.232;6.556;2023-03-20T01:19:24;101871.00;;;10.22;68.56
29359;BME280;16347;53.232;6.556;2023-03-20T01:21:52;101866.50;;;10.01;68.52
29359;BME280;16347;53.232;6.556;2023-03-20T01:24:20;101864.13;;;10.07;69.06
29359;BME280;16347;53.232;6.556;2023-03-20T01:26:48;101860.22;;;10.00;68.46
29359;BME280;16347;53.232;6.556;2023-03-20T01:29:21;101856.22;;;10.04;69.17
29359;BME280;16347;53.232;6.556;2023-03-20T01:31:50;101847.13;;;9.94;69.17
29359;BME280;16347;53.232;6.556;2023-03-20T01:34:21;101848.72;;;9.76;69.49
29359;BME280;16347;53.232;6.556;2023-03-20T01:36:50;101842.22;;;9.88;69.61
29359;BME280;16347;53.232;6.556;2023-03-20T01:39:20;101839.13;;;9.93;69.83
29359;BME280;16347;53.232;6.556;2023-03-20T01:41:51;101845.34;;;10.04;69.65
29359;BME280;16347;53.232;6.556;2023-03-20T01:44:24;101844.69;;;10.23;69.40
29359;BME280;16347;53.232;6.556;2023-03-20T01:46:57;101841.97;;;10.23;68.52
29359;BME280;16347;53.232;6.556;2023-03-20T01:52:31;101822.53;;;10.27;68.05
29359;BME280;16347;53.232;6.556;2023-03-20T01:54:59;101830.63;;;10.18;68.62
29359;BME280;16347;53.232;6.556;2023-03-20T01:57:30;101829.25;;;10.23;68.88
29359;BME280;16347;53.232;6.556;2023-03-20T02:00:03;101827.19;;;10.16;68.95
29359;BME280;16347;53.232;6.556;2023-03-20T02:02:41;101825.66;;;9.91;69.74
29359;BME280;16347;53.232;6.556;2023-03-20T02:05:16;101824.03;;;10.00;69.61
29359;BME280;16347;53.232;6.556;2023-03-20T02:07:49;101808.25;;;9.94;70.36
29359;BME280;16347;53.232;6.556;2023-03-20T02:10:18;101801.44;;;9.99;70.19
29359;BME280;16347;53.232;6.556;2023-03-20T02:13:08;101814.41;;;9.96;70.60
29359;BME280;16347;53.232;6.556;2023-03-20T02:16:12;101799.09;;;9.95;70.69
29359;BME280;16347;53.232;6.556;2023-03-20T02:19:00;101798.66;;;10.10;70.82
29359;BME280;16347;53.232;6.556;2023-03-20T02:27:35;101795.00;;;9.79;71.61
29359;BME280;16347;53.232;6.556;2023-03-20T02:33:32;101779.38;;;9.93;72.38
29359;BME280;16347;53.232;6.556;2023-03-20T02:36:26;101775.81;;;9.81;72.53
29359;BME280;16347;53.232;6.556;2023-03-20T02:39:19;101779.25;;;9.62;72.71
29359;BME280;16347;53.232;6.556;2023-03-20T02:41:53;101770.13;;;9.84;73.05
29359;BME280;16347;53.232;6.556;2023-03-20T02:44:30;101766.97;;;9.79;72.77
29359;BME280;16347;53.232;6.556;2023-03-20T02:47:07;101769.22;;;9.95;72.48
29359;BME280;16347;53.232;6.556;2023-03-20T02:49:52;101768.03;;;10.08;72.35
29359;BME280;16347;53.232;6.556;2023-03-20T02:52:30;101759.69;;;10.00;71.88
29359;BME280;16347;53.232;6.556;2023-03-20T02:55:09;101756.13;;;10.00;72.45
29359;BME280;16347;53.232;6.556;2023-03-20T02:57:43;101764.97;;;10.02;71.92
29359;BME280;16347;53.232;6.556;2023-03-20T03:00:22;101758.09;;;10.18;72.20
29359;BME280;16347;53.232;6.556;2023-03-20T03:02:59;101761.59;;;10.09;71.95
29359;BME280;16347;53.232;6.556;2023-03-20T03:05:35;101763.00;;;10.24;71.83
29359;BME280;16347;53.232;6.556;2023-03-20T03:08:05;101752.06;;;10.15;71.63
29359;BME280;16347;53.232;6.556;2023-03-20T03:10:40;101748.38;;;10.16;71.87
29359;BME280;16347;53.232;6.556;2023-03-20T03:13:13;101751.94;;;9.96;71.81
29359;BME280;16347;53.232;6.556;2023-03-20T03:15:44;101741.50;;;10.01;72.44
29359;BME280;16347;53.232;6.556;2023-03-20T03:18:16;101739.22;;;9.96;72.10
29359;BME280;16347;53.232;6.556;2023-03-20T03:20:48;101732.09;;;9.84;72.22
29359;BME280;16347;53.232;6.556;2023-03-20T03:23:22;101737.97;;;10.00;73.03
29359;BME280;16347;53.232;6.556;2023-03-20T03:25:54;101724.38;;;10.00;71.93
29359;BME280;16347;53.232;6.556;2023-03-20T03:28:27;101725.41;;;10.09;72.03
29359;BME280;16347;53.232;6.556;2023-03-20T03:30:57;101720.03;;;9.98;72.28
29359;BME280;16347;53.232;6.556;2023-03-20T03:33:30;101724.44;;;10.10;72.33
29359;BME280;16347;53.232;6.556;2023-03-20T03:36:06;101724.38;;;10.00;72.27
29359;BME280;16347;53.232;6.556;2023-03-20T03:38:39;101729.72;;;10.11;71.87
29359;BME280;16347;53.232;6.556;2023-03-20T03:41:19;101717.00;;;10.12;71.49
29359;BME280;16347;53.232;6.556;2023-03-20T03:43:56;101713.50;;;10.00;71.41
29359;BME280;16347;53.232;6.556;2023-03-20T03:46:29;101713.03;;;9.95;72.01
29359;BME280;16347;53.232;6.556;2023-03-20T03:49:02;101710.63;;;10.02;71.83
29359;BME280;16347;53.232;6.556;2023-03-20T03:51:33;101701.94;;;10.08;71.12
29359;BME280;16347;53.232;6.556;2023-03-20T03:54:10;101703.03;;;10.16;71.16
29359;BME280;16347;53.232;6.556;2023-03-20T03:56:42;101697.66;;;10.26;70.84
29359;BME280;16347;53.232;6.556;2023-03-20T03:59:18;101701.81;;;10.30;70.41
29359;BME280;16347;53.232;6.556;2023-03-20T04:01:49;101707.66;;;9.84;71.38
29359;BME280;16347;53.232;6.556;2023-03-20T04:04:20;101705.88;;;9.94;71.20
29359;BME280;16347;53.232;6.556;2023-03-20T04:06:51;101700.38;;;10.05;70.85
29359;BME280;16347;53.232;6.556;2023-03-20T04:09:19;101693.47;;;10.01;70.77
29359;BME280;16347;53.232;6.556;2023-03-20T04:11:51;101682.72;;;9.90;71.02
29359;BME280;16347;53.232;6.556;2023-03-20T04:14:19;101688.19;;;10.00;71.35
29359;BME280;16347;53.232;6.556;2023-03-20T04:16:47;101677.38;;;10.09;70.41
29359;BME280;16347;53.232;6.556;2023-03-20T04:19:15;101678.38;;;9.88;70.40
29359;BME280;16347;53.232;6.556;2023-03-20T04:21:44;101672.22;;;9.86;70.74
29359;BME280;16347;53.232;6.556;2023-03-20T04:24:13;101679.72;;;9.93;70.55
29359;BME280;16347;53.232;6.556;2023-03-20T04:26:42;101681.41;;;9.94;69.95
29359;BME280;16347;53.232;6.556;2023-03-20T04:29:11;101679.25;;;9.88;69.93
29359;BME280;16347;53.232;6.556;2023-03-20T04:32:05;101674.09;;;9.85;70.13
29359;BME280;16347;53.232;6.556;2023-03-20T04:34:58;101682.19;;;9.75;69.84
29359;BME280;16347;53.232;6.556;2023-03-20T04:37:33;101675.06;;;9.84;70.01
29359;BME280;16347;53.232;6.556;2023-03-20T04:40:05;101674.88;;;9.97;69.04
29359;BME280;16347;53.232;6.556;2023-03-20T04:42:35;101680.75;;;10.02;68.32
29359;BME280;16347;53.232;6.556;2023-03-20T04:45:08;101684.00;;;10.16;68.45
29359;BME280;16347;53.232;6.556;2023-03-20T04:47:37;101677.16;;;10.22;67.36
29359;BME280;16347;53.232;6.556;2023-03-20T04:50:06;101674.94;;;10.06;67.66
29359;BME280;16347;53.232;6.556;2023-03-20T04:52:35;101674.56;;;9.90;67.99
29359;BME280;16347;53.232;6.556;2023-03-20T04:55:05;101667.06;;;9.83;68.01
29359;BME280;16347;53.232;6.556;2023-03-20T04:57:33;101678.56;;;9.96;68.01
29359;BME280;16347;53.232;6.556;2023-03-20T05:00:04;101680.81;;;9.91;67.54
29359;BME280;16347;53.232;6.556;2023-03-20T05:02:34;101680.88;;;9.70;68.26
29359;BME280;16347;53.232;6.556;2023-03-20T05:05:02;101686.63;;;9.76;68.42
29359;BME280;16347;53.232;6.556;2023-03-20T05:07:34;101686.75;;;9.75;68.20
29359;BME280;16347;53.232;6.556;2023-03-20T05:10:10;101696.66;;;10.06;67.42
29359;BME280;16347;53.232;6.556;2023-03-20T05:12:45;101690.09;;;9.88;67.50
29359;BME280;16347;53.232;6.556;2023-03-20T05:15:32;101686.34;;;10.00;67.43
29359;BME280;16347;53.232;6.556;2023-03-20T05:18:26;101691.09;;;9.87;67.49
29359;BME280;16347;53.232;6.556;2023-03-20T05:21:07;101693.69;;;9.89;67.65
29359;BME280;16347;53.232;6.556;2023-03-20T05:23:51;101691.44;;;9.94;67.61
29359;BME280;16347;53.232;6.556;2023-03-20T05:26:42;101689.41;;;9.86;67.65
29359;BME280;16347;53.232;6.556;2023-03-20T05:29:25;101692.78;;;9.78;67.95
29359;BME280;16347;53.232;6.556;2023-03-20T05:32:11;101690.31;;;9.75;68.00
29359;BME280;16347;53.232;6.556;2023-03-20T05:34:55;101695.81;;;9.85;67.39
29359;BME280;16347;53.232;6.556;2023-03-20T05:37:41;101704.34;;;9.80;67.71
29359;BME280;16347;53.232;6.556;2023-03-20T05:40:19;101700.84;;;9.69;67.38
29359;BME280;16347;53.232;6.556;2023-03-20T05:43:08;101701.31;;;9.74;67.41
29359;BME280;16347;53.232;6.556;2023-03-20T05:46:08;101701.31;;;9.95;67.21
29359;BME280;16347;53.232;6.556;2023-03-20T05:48:55;101695.66;;;10.07;66.39
29359;BME280;16347;53.232;6.556;2023-03-20T05:51:32;101717.38;;;10.07;65.91
29359;BME280;16347;53.232;6.556;2023-03-20T05:54:09;101716.47;;;9.97;66.51
29359;BME280;16347;53.232;6.556;2023-03-20T05:56:39;101711.56;;;9.91;66.40
29359;BME280;16347;53.232;6.556;2023-03-20T05:59:30;101703.31;;;9.72;67.16
29359;BME280;16347;53.232;6.556;2023-03-20T06:02:16;101697.88;;;9.72;67.47
29359;BME280;16347;53.232;6.556;2023-03-20T06:04:53;101697.00;;;9.71;67.43
29359;BME280;16347;53.232;6.556;2023-03-20T06:07:36;101715.81;;;9.84;66.98
29359;BME280;16347;53.232;6.556;2023-03-20T06:10:10;101704.22;;;9.82;66.86
29359;BME280;16347;53.232;6.556;2023-03-20T06:12:38;101709.34;;;9.75;67.39
29359;BME280;16347;53.232;6.556;2023-03-20T06:15:07;101704.81;;;9.86;66.99
29359;BME280;16347;53.232;6.556;2023-03-20T06:17:40;101704.56;;;9.89;66.97
29359;BME280;16347;53.232;6.556;2023-03-20T06:20:11;101713.31;;;9.92;66.73
29359;BME280;16347;53.232;6.556;2023-03-20T06:22:41;101717.91;;;10.01;65.83
29359;BME280;16347;53.232;6.556;2023-03-20T06:25:10;101708.78;;;9.82;66.34
29359;BME280;16347;53.232;6.556;2023-03-20T06:27:42;101704.81;;;9.86;66.63
29359;BME280;16347;53.232;6.556;2023-03-20T06:30:11;101713.75;;;9.56;67.01
29359;BME280;16347;53.232;6.556;2023-03-20T06:32:40;101711.38;;;9.62;66.84
29359;BME280;16347;53.232;6.556;2023-03-20T06:35:10;101703.34;;;9.61;67.21
29359;BME280;16347;53.232;6.556;2023-03-20T06:37:44;101710.19;;;9.76;66.70
29359;BME280;16347;53.232;6.556;2023-03-20T06:40:18;101706.41;;;9.88;66.14
29359;BME280;16347;53.232;6.556;2023-03-20T06:42:47;101708.09;;;9.79;66.53
29359;BME280;16347;53.232;6.556;2023-03-20T06:45:16;101703.84;;;9.66;66.65
29359;BME280;16347;53.232;6.556;2023-03-20T06:47:54;101716.06;;;9.60;66.79
29359;BME280;16347;53.232;6.556;2023-03-20T06:50:22;101718.66;;;9.62;66.78
29359;BME280;16347;53.232;6.556;2023-03-20T06:52:52;101721.31;;;9.73;66.57
29359;BME280;16347;53.232;6.556;2023-03-20T06:55:46;101718.53;;;9.84;66.12
29359;BME280;16347;53.232;6.556;2023-03-20T06:58:15;101726.66;;;9.84;65.69
29359;BME280;16347;53.232;6.556;2023-03-20T07:00:44;101724.16;;;9.92;65.68
29359;BME280;16347;53.232;6.556;2023-03-20T07:03:13;101741.78;;;9.98;65.67
29359;BME280;16347;53.232;6.556;2023-03-20T07:05:44;101741.19;;;9.94;65.51
29359;BME280;16347;53.232;6.556;2023-03-20T07:08:13;101736.56;;;10.06;65.38
29359;BME280;16347;53.232;6.556;2023-03-20T07:10:42;101737.63;;;9.94;65.08
29359;BME280;16347;53.232;6.556;2023-03-20T07:13:11;101741.44;;;9.91;64.98
29359;BME280;16347;53.232;6.556;2023-03-20T07:15:41;101741.41;;;10.02;65.06
29359;BME280;16347;53.232;6.556;2023-03-20T07:18:31;101736.94;;;10.01;64.99
29359;BME280;16347;53.232;6.556;2023-03-20T07:21:00;101733.19;;;9.93;64.93
29359;BME280;16347;53.232;6.556;2023-03-20T07:23:32;101739.66;;;9.80;66.05
29359;BME280;16347;53.232;6.556;2023-03-20T07:26:01;101755.44;;;9.87;65.88
29359;BME280;16347;53.232;6.556;2023-03-20T07:28:30;101739.00;;;9.88;65.57
29359;BME280;16347;53.232;6.556;2023-03-20T07:31:21;101734.84;;;9.63;66.02
29359;BME280;16347;53.232;6.556;2023-03-20T07:34:02;101742.13;;;9.84;65.67
29359;BME280;16347;53.232;6.556;2023-03-20T07:36:32;101748.34;;;9.95;65.89
29359;BME280;16347;53.232;6.556;2023-03-20T07:39:02;101748.06;;;9.98;65.27
29359;BME280;16347;53.232;6.556;2023-03-20T07:41:31;101758.22;;;9.96;65.17
29359;BME280;16347;53.232;6.556;2023-03-20T07:44:06;101757.09;;;9.78;65.74
29359;BME280;16347;53.232;6.556;2023-03-20T07:46:49;101760.06;;;9.75;65.66
29359;BME280;16347;53.232;6.556;2023-03-20T07:49:18;101758.06;;;9.98;65.76
29359;BME280;16347;53.232;6.556;2023-03-20T07:51:48;101768.88;;;9.88;65.87
29359;BME280;16347;53.232;6.556;2023-03-20T07:54:17;101765.19;;;9.89;65.47
29359;BME280;16347;53.232;6.556;2023-03-20T07:56:46;101770.34;;;9.92;65.34
29359;BME280;16347;53.232;6.556;2023-03-20T07:59:14;101765.56;;;9.85;65.74
29359;BME280;16347;53.232;6.556;2023-03-20T08:01:42;101767.09;;;9.77;66.00
29359;BME280;16347;53.232;6.556;2023-03-20T08:04:10;101754.53;;;9.76;65.96
29359;BME280;16347;53.232;6.556;2023-03-20T08:06:38;101751.78;;;9.97;65.28
29359;BME280;16347;53.232;6.556;2023-03-20T08:09:07;101766.06;;;9.90;65.29
29359;BME280;16347;53.232;6.556;2023-03-20T08:11:36;101758.16;;;9.87;65.35
29359;BME280;16347;53.232;6.556;2023-03-20T08:14:04;101760.41;;;10.02;65.05
29359;BME280;16347;53.232;6.556;2023-03-20T08:16:33;101758.94;;;9.77;65.15
29359;BME280;16347;53.232;6.556;2023-03-20T08:19:01;101756.75;;;9.71;65.93
29359;BME280;16347;53.232;6.556;2023-03-20T08:21:31;101752.59;;;9.88;65.56
29359;BME280;16347;53.232;6.556;2023-03-20T08:23:59;101751.81;;;9.76;65.68
29359;BME280;16347;53.232;6.556;2023-03-20T08:26:28;101749.91;;;9.77;65.87
29359;BME280;16347;53.232;6.556;2023-03-20T08:28:58;101747.56;;;9.84;65.66
29359;BME280;16347;53.232;6.556;2023-03-20T08:31:26;101745.56;;;10.06;65.19
29359;BME280;16347;53.232;6.556;2023-03-20T08:33:54;101754.34;;;10.31;64.77
29359;BME280;16347;53.232;6.556;2023-03-20T08:36:23;101753.75;;;10.27;64.09
29359;BME280;16347;53.232;6.556;2023-03-20T08:38:51;101734.75;;;10.37;63.67
29359;BME280;16347;53.232;6.556;2023-03-20T08:41:19;101741.09;;;10.16;64.38
29359;BME280;16347;53.232;6.556;2023-03-20T08:43:47;101742.56;;;10.20;64.29
29359;BME280;16347;53.232;6.556;2023-03-20T08:46:16;101744.88;;;10.35;64.05
29359;BME280;16347;53.232;6.556;2023-03-20T08:48:44;101745.28;;;10.51;63.35
29359;BME280;16347;53.232;6.556;2023-03-20T08:51:12;101742.56;;;10.20;63.53
29359;BME280;16347;53.232;6.556;2023-03-20T08:53:40;101739.13;;;10.28;63.77
29359;BME280;16347;53.232;6.556;2023-03-20T08:56:09;101748.13;;;10.49;63.50
29359;BME280;16347;53.232;6.556;2023-03-20T08:58:37;101749.44;;;10.64;62.81
29359;BME280;16347;53.232;6.556;2023-03-20T09:01:07;101734.59;;;10.68;62.62
29359;BME280;16347;53.232;6.556;2023-03-20T09:03:37;101739.06;;;10.79;62.33
29359;BME280;16347;53.232;6.556;2023-03-20T09:06:06;101734.75;;;10.67;62.53
29359;BME280;16347;53.232;6.556;2023-03-20T09:08:35;101728.84;;;10.62;62.37
29359;BME280;16347;53.232;6.556;2023-03-20T09:11:04;101736.19;;;10.71;62.50
29359;BME280;16347;53.232;6.556;2023-03-20T09:13:32;101730.16;;;10.67;61.85
29359;BME280;16347;53.232;6.556;2023-03-20T09:16:00;101727.75;;;10.74;62.02
29359;BME280;16347;53.232;6.556;2023-03-20T09:18:30;101729.00;;;10.60;62.64
29359;BME280;16347;53.232;6.556;2023-03-20T09:20:59;101724.41;;;10.61;62.84
29359;BME280;16347;53.232;6.556;2023-03-20T09:23:28;101730.56;;;10.63;63.19
29359;BME280;16347;53.232;6.556;2023-03-20T09:25:58;101730.75;;;10.71;62.37
29359;BME280;16347;53.232;6.556;2023-03-20T09:28:27;101709.66;;;10.54;63.49
29359;BME280;16347;53.232;6.556;2023-03-20T09:30:56;101721.88;;;10.39;63.07
29359;BME280;16347;53.232;6.556;2023-03-20T09:33:25;101722.84;;;10.68;62.52
29359;BME280;16347;53.232;6.556;2023-03-20T09:35:54;101721.59;;;10.81;62.61
29359;BME280;16347;53.232;6.556;2023-03-20T09:38:23;101729.09;;;10.99;61.65
29359;BME280;16347;53.232;6.556;2023-03-20T09:40:53;101732.25;;;10.94;61.56
29359;BME280;16347;53.232;6.556;2023-03-20T09:43:36;101735.28;;;11.01;61.54
29359;BME280;16347;53.232;6.556;2023-03-20T09:46:25;101745.13;;;10.92;61.24
29359;BME280;16347;53.232;6.556;2023-03-20T09:49:02;101730.63;;;10.82;62.04
29359;BME280;16347;53.232;6.556;2023-03-20T09:51:37;101738.94;;;10.80;62.01
29359;BME280;16347;53.232;6.556;2023-03-20T09:54:17;101731.53;;;11.02;61.49
29359;BME280;16347;53.232;6.556;2023-03-20T09:56:49;101739.03;;;10.69;61.83
29359;BME280;16347;53.232;6.556;2023-03-20T09:59:19;101729.38;;;11.05;62.18
29359;BME280;16347;53.232;6.556;2023-03-20T10:01:50;101733.25;;;10.93;61.37
29359;BME280;16347;53.232;6.556;2023-03-20T10:04:19;101727.63;;;10.95;61.62
29359;BME280;16347;53.232;6.556;2023-03-20T10:06:47;101746.53;;;10.87;61.78
29359;BME280;16347;53.232;6.556;2023-03-20T10:09:20;101726.53;;;10.97;61.76
29359;BME280;16347;53.232;6.556;2023-03-20T10:11:53;101742.97;;;10.86;61.90
29359;BME280;16347;53.232;6.556;2023-03-20T10:14:33;101730.53;;;10.93;62.55
29359;BME280;16347;53.232;6.556;2023-03-20T10:17:19;101724.50;;;10.90;62.46
29359;BME280;16347;53.232;6.556;2023-03-20T10:19:56;101724.47;;;10.80;62.20
29359;BME280;16347;53.232;6.556;2023-03-20T10:22:27;101728.09;;;10.90;62.36
29359;BME280;16347;53.232;6.556;2023-03-20T10:25:04;101718.38;;;11.07;62.27
29359;BME280;16347;53.232;6.556;2023-03-20T10:27:39;101720.50;;;11.03;62.28
29359;BME280;16347;53.232;6.556;2023-03-20T10:30:25;101738.47;;;11.35;61.72
29359;BME280;16347;53.232;6.556;2023-03-20T10:33:07;101733.44;;;11.30;61.91
29359;BME280;16347;53.232;6.556;2023-03-20T10:35:41;101727.00;;;11.41;61.27
29359;BME280;16347;53.232;6.556;2023-03-20T10:38:25;101738.31;;;11.46;61.41
29359;BME280;16347;53.232;6.556;2023-03-20T10:40:58;101728.56;;;11.14;62.07
29359;BME280;16347;53.232;6.556;2023-03-20T10:43:29;101725.41;;;11.28;62.16
29359;BME280;16347;53.232;6.556;2023-03-20T10:46:01;101721.41;;;11.32;62.29
29359;BME280;16347;53.232;6.556;2023-03-20T10:48:34;101721.28;;;11.34;61.74
29359;BME280;16347;53.232;6.556;2023-03-20T10:51:04;101731.09;;;10.97;63.41
29359;BME280;16347;53.232;6.556;2023-03-20T10:53:44;101724.63;;;10.88;62.99
29359;BME280;16347;53.232;6.556;2023-03-20T10:56:21;101724.91;;;10.85;63.42
29359;BME280;16347;53.232;6.556;2023-03-20T10:58:55;101736.31;;;10.69;63.50
29359;BME280;16347;53.232;6.556;2023-03-20T11:01:24;101734.50;;;10.79;63.40
29359;BME280;16347;53.232;6.556;2023-03-20T11:03:53;101734.78;;;10.76;63.19
29359;BME280;16347;53.232;6.556;2023-03-20T11:06:26;101762.00;;;10.86;63.59
29359;BME280;16347;53.232;6.556;2023-03-20T11:09:09;101722.06;;;10.87;63.58
29359;BME280;16347;53.232;6.556;2023-03-20T11:11:40;101718.66;;;10.94;62.83
29359;BME280;16347;53.232;6.556;2023-03-20T11:14:17;101732.69;;;10.99;62.92
29359;BME280;16347;53.232;6.556;2023-03-20T11:16:47;101724.97;;;11.14;62.57
29359;BME280;16347;53.232;6.556;2023-03-20T11:19:19;101726.53;;;11.07;62.92
29359;BME280;16347;53.232;6.556;2023-03-20T11:21:50;101717.63;;;11.05;62.92
29359;BME280;16347;53.232;6.556;2023-03-20T11:24:32;101727.34;;;10.88;63.91
29359;BME280;16347;53.232;6.556;2023-03-20T11:27:07;101717.59;;;10.86;63.91
29359;BME280;16347;53.232;6.556;2023-03-20T11:29:38;101746.50;;;10.77;63.90
29359;BME280;16347;53.232;6.556;2023-03-20T11:32:21;101743.03;;;10.65;64.03
29359;BME280;16347;53.232;6.556;2023-03-20T11:34:52;101727.06;;;10.51;64.27
29359;BME280;16347;53.232;6.556;2023-03-20T11:37:25;101714.28;;;10.72;63.80
29359;BME280;16347;53.232;6.556;2023-03-20T11:39:57;101714.09;;;10.64;64.02
29359;BME280;16347;53.232;6.556;2023-03-20T11:42:29;101703.97;;;10.76;63.64
29359;BME280;16347;53.232;6.556;2023-03-20T11:45:02;101701.38;;;10.74;63.20
29359;BME280;16347;53.232;6.556;2023-03-20T11:47:34;101700.03;;;10.99;63.46
29359;BME280;16347;53.232;6.556;2023-03-20T11:50:05;101705.84;;;10.85;62.80
29359;BME280;16347;53.232;6.556;2023-03-20T11:52:36;101714.09;;;10.64;63.00
29359;BME280;16347;53.232;6.556;2023-03-20T11:55:22;101718.75;;;10.83;62.86
29359;BME280;16347;53.232;6.556;2023-03-20T11:57:57;101706.59;;;10.77;62.71
29359;BME280;16347;53.232;6.556;2023-03-20T12:00:29;101718.56;;;10.75;62.74
29359;BME280;16347;53.232;6.556;2023-03-20T12:05:59;101717.25;;;10.60;63.36
29359;BME280;16347;53.232;6.556;2023-03-20T12:08:30;101717.22;;;10.50;64.09
29359;BME280;16347;53.232;6.556;2023-03-20T12:11:05;101730.66;;;10.52;64.87
29359;BME280;16347;53.232;6.556;2023-03-20T12:13:39;101720.34;;;10.46;65.14
29359;BME280;16347;53.232;6.556;2023-03-20T12:16:14;101703.78;;;10.58;65.78
29359;BME280;16347;53.232;6.556;2023-03-20T12:18:46;101708.09;;;10.61;65.60
29359;BME280;16347;53.232;6.556;2023-03-20T12:21:19;101707.88;;;10.43;66.69
29359;BME280;16347;53.232;6.556;2023-03-20T12:23:52;101707.06;;;10.52;67.48
29359;BME280;16347;53.232;6.556;2023-03-20T12:26:31;101705.25;;;10.72;67.41
29359;BME280;16347;53.232;6.556;2023-03-20T12:29:06;101703.97;;;10.66;67.81
29359;BME280;16347;53.232;6.556;2023-03-20T12:31:42;101691.88;;;10.50;68.33
29359;BME280;16347;53.232;6.556;2023-03-20T12:34:17;101700.13;;;10.39;68.69
29359;BME280;16347;53.232;6.556;2023-03-20T12:36:49;101695.94;;;10.35;68.47
29359;BME280;16347;53.232;6.556;2023-03-20T12:39:20;101692.41;;;10.13;69.45
29359;BME280;16347;53.232;6.556;2023-03-20T12:42:00;101702.41;;;10.13;69.80
29359;BME280;16347;53.232;6.556;2023-03-20T12:44:38;101693.06;;;10.26;69.96
29359;BME280;16347;53.232;6.556;2023-03-20T12:47:25;101692.06;;;10.27;69.92
29359;BME280;16347;53.232;6.556;2023-03-20T12:50:04;101698.34;;;10.07;70.19
29359;BME280;16347;53.232;6.556;2023-03-20T12:52:45;101682.75;;;10.00;70.97
29359;BME280;16347;53.232;6.556;2023-03-20T12:55:25;101685.75;;;9.97;71.69
29359;BME280;16347;53.232;6.556;2023-03-20T12:58:05;101698.31;;;10.18;71.48
29359;BME280;16347;53.232;6.556;2023-03-20T13:00:44;101690.03;;;9.99;72.27
29359;BME280;16347;53.232;6.556;2023-03-20T13:03:30;101685.47;;;10.20;72.61
29359;BME280;16347;53.232;6.556;2023-03-20T13:06:08;101683.06;;;10.27;72.25
29359;BME280;16347;53.232;6.556;2023-03-20T13:08:52;101683.28;;;10.14;72.99
29359;BME280;16347;53.232;6.556;2023-03-20T13:11:30;101679.91;;;9.80;74.88
29359;BME280;16347;53.232;6.556;2023-03-20T13:14:08;101689.19;;;10.19;74.25
29359;BME280;16347;53.232;6.556;2023-03-20T13:16:48;101678.75;;;10.24;74.28
29359;BME280;16347;53.232;6.556;2023-03-20T13:19:24;101689.25;;;10.39;73.64
29359;BME280;16347;53.232;6.556;2023-03-20T13:21:58;101686.72;;;10.16;74.54
29359;BME280;16347;53.232;6.556;2023-03-20T13:24:35;101672.06;;;10.08;74.58
29359;BME280;16347;53.232;6.556;2023-03-20T13:27:14;101670.22;;;9.88;75.65
29359;BME280;16347;53.232;6.556;2023-03-20T13:29:47;101675.28;;;9.92;76.28
29359;BME280;16347;53.232;6.556;2023-03-20T13:32:26;101670.03;;;10.00;76.11
29359;BME280;16347;53.232;6.556;2023-03-20T13:35:13;101668.06;;;10.12;76.18
29359;BME280;16347;53.232;6.556;2023-03-20T13:37:44;101668.78;;;10.35;75.62
29359;BME280;16347;53.232;6.556;2023-03-20T13:40:17;101670.53;;;10.45;75.72
29359;BME280;16347;53.232;6.556;2023-03-20T13:42:49;101683.19;;;10.25;75.81
29359;BME280;16347;53.232;6.556;2023-03-20T13:45:30;101665.84;;;10.17;76.39